Time;durP1;ratioP1;P1;durP2;ratioP2;P2;SDS_P1;SDS_P2;PMS_P1;PMS_P2;Temp;Humidity;BMP_temperature;BMP_pressure;BME280_temperature;BME280_humidity;BME280_pressure;Samples;Min_cycle;Max_cycle;Signal;HPM_P1;HPM_P2
2021/06/17 00:01:31;;;;;;;11.80;3.10;;;;;;;16.81;47.89;99652.16;4920909;29;20146;-70
2021/06/17 00:03:59;;;;;;;13.73;3.08;;;;;;;16.80;47.46;99665.13;4922532;29;20056;-69
2021/06/17 00:06:25;;;;;;;11.85;3.17;;;;;;;16.79;47.60;99657.19;4923243;29;20099;-69
2021/06/17 00:08:52;;;;;;;14.13;3.20;;;;;;;16.74;48.30;99660.91;4922659;29;20473;-69
2021/06/17 00:11:18;;;;;;;8.80;2.60;;;;;;;16.72;47.60;99665.94;4920548;29;20054;-70
2021/06/17 00:13:44;;;;;;;10.15;2.60;;;;;;;16.73;47.83;99670.31;4923236;29;20099;-70
2021/06/17 00:16:11;;;;;;;8.65;2.65;;;;;;;16.66;48.10;99667.19;4920763;28;20060;-70
2021/06/17 00:18:38;;;;;;;11.05;2.80;;;;;;;16.56;48.43;99665.53;4938052;29;20048;-68
2021/06/17 00:21:06;;;;;;;13.68;3.00;;;;;;;16.56;48.56;99671.06;4920380;29;20048;-68
2021/06/17 00:23:33;;;;;;;12.30;3.53;;;;;;;16.52;48.88;99670.06;4920846;29;20055;-70
2021/06/17 00:26:00;;;;;;;10.55;3.42;;;;;;;16.51;49.30;99673.97;4919266;29;20063;-69
2021/06/17 00:28:27;;;;;;;9.48;2.90;;;;;;;16.49;49.57;99679.78;4921732;29;20058;-69
2021/06/17 00:30:53;;;;;;;14.93;3.00;;;;;;;16.42;49.50;99671.16;4921080;29;20079;-69
2021/06/17 00:33:20;;;;;;;8.75;2.78;;;;;;;16.42;49.57;99680.25;4921143;29;20054;-68
2021/06/17 00:35:47;;;;;;;13.90;3.22;;;;;;;16.40;49.98;99682.50;4919264;29;20123;-69
2021/06/17 00:38:15;;;;;;;12.30;3.40;;;;;;;16.33;50.18;99684.91;4919820;29;20403;-69
2021/06/17 00:40:42;;;;;;;12.85;3.05;;;;;;;16.25;50.36;99680.16;4923377;29;20427;-70
2021/06/17 00:43:09;;;;;;;13.02;2.90;;;;;;;16.18;50.40;99674.28;4920483;29;20052;-69
2021/06/17 00:45:38;;;;;;;19.52;3.75;;;;;;;16.23;50.19;99699.75;4920850;29;20079;-67
2021/06/17 00:48:06;;;;;;;9.32;2.80;;;;;;;16.23;50.09;99693.44;4919881;29;20047;-68
2021/06/17 00:50:35;;;;;;;15.25;3.10;;;;;;;16.23;49.98;99699.75;4922987;29;20048;-68
2021/06/17 00:53:02;;;;;;;10.32;3.00;;;;;;;16.24;50.20;99708.88;4920756;29;20064;-68
2021/06/17 00:55:29;;;;;;;12.23;2.90;;;;;;;16.23;50.46;99712.75;4919174;29;20058;-67
2021/06/17 00:57:56;;;;;;;18.02;2.90;;;;;;;16.22;49.86;99711.94;4918228;29;20394;-67
2021/06/17 01:00:22;;;;;;;11.88;3.15;;;;;;;16.22;50.06;99711.13;4934750;29;20102;-68
2021/06/17 01:02:48;;;;;;;15.15;2.80;;;;;;;16.22;50.04;99716.66;4921117;29;20060;-69
2021/06/17 01:05:18;;;;;;;14.23;3.28;;;;;;;16.18;50.51;99721.97;4920599;29;20058;-68
2021/06/17 01:07:55;;;;;;;11.55;2.58;;;;;;;16.18;50.40;99730.25;4917903;29;20215;-67
2021/06/17 01:10:27;;;;;;;15.27;3.10;;;;;;;16.15;50.58;99736.41;4930831;29;20056;-69
2021/06/17 01:13:12;;;;;;;16.75;3.03;;;;;;;16.14;50.56;99732.00;4920167;29;20055;-70
2021/06/17 01:15:48;;;;;;;11.90;2.83;;;;;;;16.13;50.82;99733.16;4927909;29;20107;-68
2021/06/17 01:18:16;;;;;;;21.92;3.50;;;;;;;16.10;50.55;99733.78;4916722;29;20539;-69
2021/06/17 01:20:50;;;;;;;13.18;3.22;;;;;;;16.12;50.36;99726.00;4921661;29;20040;-69
2021/06/17 01:23:39;;;;;;;10.93;2.60;;;;;;;16.13;50.73;99728.44;4920063;29;20470;-69
2021/06/17 01:26:16;;;;;;;15.68;3.10;;;;;;;16.10;50.20;99725.50;4919706;29;20497;-69
2021/06/17 01:28:45;;;;;;;12.30;2.58;;;;;;;16.22;49.61;99735.97;4921170;29;20063;-68
2021/06/17 01:31:16;;;;;;;15.80;3.05;;;;;;;16.27;49.75;99730.31;4921313;29;20138;-67
2021/06/17 01:33:44;;;;;;;9.25;2.53;;;;;;;16.27;49.57;99739.41;4921115;29;20055;-70
2021/06/17 01:36:17;;;;;;;15.63;3.15;;;;;;;16.30;49.33;99737.94;4935220;29;20063;-70
2021/06/17 01:38:46;;;;;;;8.15;2.67;;;;;;;16.34;49.74;99741.72;4921470;29;20040;-70
2021/06/17 01:41:14;;;;;;;16.05;3.45;;;;;;;16.29;49.86;99736.31;4923856;29;20508;-69
2021/06/17 01:43:42;;;;;;;12.48;2.85;;;;;;;16.37;49.93;99752.13;4920164;29;20407;-70
2021/06/17 01:46:12;;;;;;;16.75;2.85;;;;;;;16.53;49.71;99746.19;4920847;29;20421;-69
2021/06/17 01:48:39;;;;;;;15.68;2.70;;;;;;;16.50;49.90;99735.81;4921718;29;20065;-69
2021/06/17 01:51:07;;;;;;;18.30;3.00;;;;;;;16.59;49.43;99740.22;4921314;29;20055;-69
2021/06/17 01:53:36;;;;;;;10.73;2.80;;;;;;;16.59;49.86;99731.97;4919819;29;20049;-68
2021/06/17 01:56:04;;;;;;;12.10;2.72;;;;;;;16.57;49.76;99738.91;4919847;29;20086;-70
2021/06/17 01:58:30;;;;;;;;;;;;;;;16.56;49.38;99751.91;4918466;29;20044;-68
2021/06/17 02:00:59;;;;;;;11.70;2.50;;;;;;;16.44;50.03;99760.75;4920707;29;19966;-67
2021/06/17 02:03:27;;;;;;;10.55;2.60;;;;;;;16.45;50.03;99756.84;4919029;29;20065;-69
2021/06/17 02:05:54;;;;;;;12.00;2.70;;;;;;;16.58;49.97;99754.34;4920238;29;20052;-70
2021/06/17 02:08:23;;;;;;;19.13;2.95;;;;;;;16.72;49.57;99757.81;4917989;29;20052;-68
2021/06/17 02:10:51;;;;;;;15.50;3.10;;;;;;;16.77;49.36;99759.63;4939098;29;20118;-67
2021/06/17 02:13:20;;;;;;;10.27;2.95;;;;;;;16.83;49.36;99761.13;4928843;29;20055;-69
2021/06/17 02:15:48;;;;;;;12.30;2.55;;;;;;;16.77;49.53;99762.41;4922939;29;20052;-69
2021/06/17 02:18:20;;;;;;;16.58;3.20;;;;;;;16.75;49.49;99759.16;4924428;29;20052;-68
2021/06/17 02:20:48;;;;;;;11.43;3.42;;;;;;;16.79;48.99;99760.13;4923036;29;20048;-69
2021/06/17 02:23:16;;;;;;;10.10;2.67;;;;;;;16.83;48.76;99772.16;4921981;29;20107;-69
2021/06/17 02:25:45;;;;;;;14.43;2.58;;;;;;;16.88;49.10;99765.69;4922881;29;20508;-69
2021/06/17 02:28:15;;;;;;;15.57;2.85;;;;;;;16.93;49.13;99768.31;4937996;29;20540;-68
2021/06/17 02:30:43;;;;;;;11.70;2.50;;;;;;;17.06;48.62;99774.06;4923357;29;20052;-69
2021/06/17 02:33:11;;;;;;;11.82;2.78;;;;;;;17.12;48.50;99781.09;4923142;29;20509;-69
2021/06/17 02:35:42;;;;;;;12.63;2.80;;;;;;;17.15;48.29;99775.72;4923062;29;20047;-69
2021/06/17 02:38:14;;;;;;;12.48;2.50;;;;;;;17.14;48.13;99774.09;4923022;29;20065;-69
2021/06/17 02:40:45;;;;;;;11.43;2.63;;;;;;;17.29;48.75;99780.31;4923978;29;20151;-69
2021/06/17 02:43:17;;;;;;;8.60;2.35;;;;;;;17.46;47.97;99782.34;4921372;29;20203;-68
2021/06/17 02:45:45;;;;;;;8.07;2.58;;;;;;;17.47;47.85;99789.47;4923893;29;20055;-69
2021/06/17 02:48:12;;;;;;;11.98;2.53;;;;;;;17.43;48.08;99780.22;4922467;29;20060;-67
2021/06/17 02:50:40;;;;;;;9.43;2.63;;;;;;;17.51;47.86;99781.38;4920597;29;20513;-69
2021/06/17 02:53:06;;;;;;;11.90;2.50;;;;;;;17.44;47.95;99787.38;4924191;28;20535;-68
2021/06/17 02:55:35;;;;;;;10.80;2.45;;;;;;;17.39;48.06;99791.09;4923039;29;20437;-68
2021/06/17 02:58:17;;;;;;;8.48;2.47;;;;;;;17.49;48.03;99781.69;4922481;29;20134;-69
2021/06/17 03:00:48;;;;;;;7.65;2.50;;;;;;;17.55;48.38;99783.13;4923438;29;20058;-69
2021/06/17 03:03:20;;;;;;;13.23;3.95;;;;;;;17.44;48.25;99788.16;4920064;29;20060;-68
2021/06/17 03:05:52;;;;;;;11.65;2.75;;;;;;;17.51;48.35;99797.94;4921766;29;20531;-69
2021/06/17 03:08:26;;;;;;;8.63;2.20;;;;;;;17.50;48.13;99785.28;4923702;29;20200;-70
2021/06/17 03:10:57;;;;;;;10.88;3.65;;;;;;;17.61;48.29;99794.06;4919669;29;20048;-69
2021/06/17 03:13:26;;;;;;;14.98;3.20;;;;;;;17.55;47.28;99801.69;4922787;28;20139;-70
2021/06/17 03:15:52;;;;;;;10.55;2.55;;;;;;;17.60;48.05;99800.72;4923623;29;20052;-69
2021/06/17 03:18:21;;;;;;;12.35;2.58;;;;;;;17.62;47.98;99790.97;4920848;29;20127;-69
2021/06/17 03:20:49;;;;;;;15.88;3.47;;;;;;;17.66;47.92;99797.50;4920951;29;20044;-69
2021/06/17 03:23:18;;;;;;;11.70;2.83;;;;;;;17.67;48.12;99798.28;4920966;29;20536;-69
2021/06/17 03:25:50;;;;;;;12.90;3.00;;;;;;;17.62;48.11;99807.56;4922475;29;20048;-70
2021/06/17 03:28:20;;;;;;;18.27;3.67;;;;;;;17.68;48.05;99811.81;4929005;29;20130;-69
2021/06/17 03:30:50;;;;;;;18.55;4.78;;;;;;;17.60;48.64;99815.34;4930307;29;20051;-69
2021/06/17 03:33:19;;;;;;;16.08;3.47;;;;;;;17.71;47.67;99810.31;4926980;29;20052;-67
2021/06/17 03:35:47;;;;;;;12.80;2.88;;;;;;;17.71;47.83;99811.16;4922443;28;20055;-69
2021/06/17 03:38:15;;;;;;;13.07;2.40;;;;;;;17.78;47.58;99816.22;4922376;29;20048;-69
2021/06/17 03:40:43;;;;;;;12.60;2.97;;;;;;;17.84;47.59;99822.41;4922519;29;20147;-68
2021/06/17 03:43:11;;;;;;;12.25;2.90;;;;;;;17.85;47.21;99816.53;4925794;29;20059;-69
2021/06/17 03:45:40;;;;;;;10.75;2.80;;;;;;;17.81;46.87;99817.53;4928816;29;20505;-70
2021/06/17 03:48:09;;;;;;;12.30;2.63;;;;;;;17.77;47.15;99833.09;4923387;29;20529;-69
2021/06/17 03:50:36;;;;;;;13.95;3.05;;;;;;;17.69;47.38;99824.50;4923325;29;20050;-69
2021/06/17 03:53:03;;;;;;;10.93;2.58;;;;;;;17.81;47.51;99825.81;4920806;29;20484;-69
2021/06/17 03:55:32;;;;;;;13.27;2.70;;;;;;;17.89;47.16;99830.53;4928472;29;20473;-70
2021/06/17 03:57:59;;;;;;;8.73;3.00;;;;;;;17.86;47.72;99822.88;4922908;29;20598;-68
2021/06/17 04:00:30;;;;;;;10.27;2.85;;;;;;;17.92;47.08;99827.13;4921687;29;20047;-69
2021/06/17 04:02:59;;;;;;;11.73;2.70;;;;;;;17.97;47.36;99828.91;4922053;29;20048;-69
2021/06/17 04:05:25;;;;;;;12.52;2.83;;;;;;;17.98;47.96;99830.53;4921861;29;20123;-69
2021/06/17 04:07:56;;;;;;;7.97;2.50;;;;;;;18.00;47.69;99828.25;4921447;29;20131;-70
2021/06/17 04:10:24;;;;;;;13.52;3.10;;;;;;;18.08;46.96;99841.31;4920959;29;20051;-69
2021/06/17 04:12:53;;;;;;;10.63;2.70;;;;;;;17.97;47.11;99845.50;4920312;29;20040;-70
2021/06/17 04:15:20;;;;;;;11.43;2.75;;;;;;;18.04;46.97;99842.28;4921522;29;20468;-69
2021/06/17 04:17:51;;;;;;;9.87;3.17;;;;;;;18.10;46.88;99850.09;4923010;29;20051;-69
2021/06/17 04:20:23;;;;;;;13.95;2.80;;;;;;;18.20;47.14;99851.75;4935084;29;20047;-69
2021/06/17 04:22:52;;;;;;;15.18;2.75;;;;;;;18.30;46.57;99852.56;4922641;29;20056;-70
2021/06/17 04:25:20;;;;;;;11.02;2.85;;;;;;;18.34;46.33;99853.53;4918971;29;20054;-70
2021/06/17 04:27:48;;;;;;;10.20;2.97;;;;;;;18.36;46.31;99854.00;4922074;29;20043;-70
2021/06/17 04:30:17;;;;;;;9.40;2.33;;;;;;;18.32;46.48;99862.16;4920232;29;20135;-70
2021/06/17 04:32:46;;;;;;;14.43;2.70;;;;;;;18.37;46.45;99858.41;4920666;29;20052;-70
2021/06/17 04:35:14;;;;;;;13.43;3.10;;;;;;;18.46;46.32;99859.22;4921951;29;20046;-70
2021/06/17 04:37:43;;;;;;;11.98;2.97;;;;;;;18.53;46.24;99855.97;4921513;29;20060;-70
2021/06/17 04:40:10;;;;;;;11.70;2.60;;;;;;;18.55;46.31;99865.56;4921240;29;20062;-71
2021/06/17 04:42:36;;;;;;;11.00;2.58;;;;;;;18.66;46.58;99865.22;4936083;29;20054;-71
2021/06/17 04:45:05;;;;;;;10.60;2.50;;;;;;;18.70;46.39;99863.41;4919235;29;20144;-69
2021/06/17 04:47:34;;;;;;;13.30;2.45;;;;;;;18.73;45.53;99868.28;4921345;29;20343;-69
2021/06/17 04:50:00;;;;;;;11.13;2.80;;;;;;;18.76;44.79;99862.13;4919948;29;20043;-70
2021/06/17 04:52:34;;;;;;;10.00;2.15;;;;;;;18.90;44.42;99874.97;4922258;29;20619;-70
2021/06/17 04:55:02;;;;;;;10.05;2.10;;;;;;;18.95;44.03;99878.34;4921376;29;20089;-70
2021/06/17 04:57:29;;;;;;;17.27;2.30;;;;;;;19.00;44.01;99885.72;4918758;29;20036;-70
2021/06/17 04:59:56;;;;;;;22.90;2.70;;;;;;;19.07;44.12;99877.72;4925765;29;20056;-70
2021/06/17 05:02:22;;;;;;;20.63;2.17;;;;;;;19.15;43.89;99883.56;4919904;29;20048;-70
2021/06/17 05:04:48;;;;;;;12.10;1.88;;;;;;;19.24;43.84;99881.59;4918741;29;20070;-69
2021/06/17 05:12:28;;;;;;;13.13;2.00;;;;;;;19.36;42.12;99878.94;4921221;29;20048;-68
2021/06/17 05:14:55;;;;;;;13.93;1.92;;;;;;;19.39;42.31;99885.75;4925198;29;20055;-69
2021/06/17 05:17:21;;;;;;;15.73;2.50;;;;;;;19.41;42.76;99886.22;4919536;29;20098;-70
2021/06/17 05:19:47;;;;;;;17.00;2.60;;;;;;;19.48;43.14;99897.63;4919476;29;20573;-69
2021/06/17 05:22:15;;;;;;;7.57;2.00;;;;;;;19.57;42.64;99886.50;4920416;29;20059;-69
2021/06/17 05:24:41;;;;;;;22.38;7.07;;;;;;;19.54;42.51;99876.06;4921036;29;20411;-67
2021/06/17 05:27:08;;;;;;;14.87;2.50;;;;;;;19.70;42.25;99891.00;4919336;29;20059;-69
2021/06/17 05:29:36;;;;;;;11.98;4.55;;;;;;;19.77;42.02;99895.19;4920881;29;20365;-69
2021/06/17 05:32:03;;;;;;;9.50;3.10;;;;;;;19.79;41.09;99890.13;4919218;29;20419;-68
2021/06/17 05:34:30;;;;;;;9.68;2.90;;;;;;;19.84;41.32;99901.03;4935050;29;20505;-67
2021/06/17 05:36:57;;;;;;;6.97;2.58;;;;;;;19.87;40.56;99905.09;4912422;29;20047;-70
2021/06/17 05:39:24;;;;;;;9.23;2.20;;;;;;;19.74;38.48;99888.34;4920558;29;20481;-69
2021/06/17 05:41:50;;;;;;;6.15;1.52;;;;;;;19.87;38.53;99894.00;4925900;29;20154;-68
2021/06/17 05:44:16;;;;;;;11.57;1.90;;;;;;;19.93;38.71;99893.50;4924970;29;20110;-67
2021/06/17 05:46:44;;;;;;;11.43;2.13;;;;;;;19.82;37.93;99904.13;4940945;29;20050;-69
2021/06/17 05:49:11;;;;;;;8.55;1.90;;;;;;;19.82;38.28;99900.53;4926188;29;20312;-69
2021/06/17 05:51:37;;;;;;;12.18;1.88;;;;;;;19.89;38.66;99905.56;4926272;29;20048;-69
2021/06/17 05:54:04;;;;;;;9.55;1.85;;;;;;;19.77;38.86;99896.03;4924975;29;20496;-70
2021/06/17 05:56:30;;;;;;;10.82;1.98;;;;;;;19.87;38.88;99897.59;4924998;29;20055;-68
2021/06/17 05:58:57;;;;;;;16.05;2.17;;;;;;;20.01;39.73;99910.44;4925515;29;20051;-70
2021/06/17 06:01:23;;;;;;;9.45;2.80;;;;;;;20.06;39.42;99905.50;4924494;29;20131;-68
2021/06/17 06:03:52;;;;;;;5.90;1.70;;;;;;;20.06;39.32;99907.47;4923226;29;20052;-69
2021/06/17 06:06:19;;;;;;;16.17;2.25;;;;;;;20.03;39.26;99908.94;4924046;29;20140;-71
2021/06/17 06:08:46;;;;;;;6.80;2.40;;;;;;;20.02;39.48;99907.31;4924342;29;20047;-69
2021/06/17 06:11:13;;;;;;;7.07;1.42;;;;;;;20.04;39.29;99901.44;4924957;29;20572;-69
2021/06/17 06:13:39;;;;;;;11.13;1.80;;;;;;;20.07;39.39;99914.63;4928523;29;20052;-70
2021/06/17 06:16:06;;;;;;;7.63;1.60;;;;;;;19.89;38.83;99922.22;4922709;29;20594;-68
2021/06/17 06:18:34;;;;;;;6.50;1.80;;;;;;;19.98;38.82;99918.28;4924688;29;20044;-70
2021/06/17 06:21:02;;;;;;;13.13;1.83;;;;;;;20.09;38.18;99921.47;4924278;29;20135;-72
2021/06/17 06:23:29;;;;;;;9.95;2.20;;;;;;;20.12;38.17;99922.75;4924884;29;20058;-70
2021/06/17 06:25:57;;;;;;;8.00;1.60;;;;;;;20.02;37.73;99920.38;4923192;29;20043;-69
2021/06/17 06:28:25;;;;;;;5.60;1.60;;;;;;;20.01;37.87;99927.88;4923482;29;20047;-70
2021/06/17 06:30:52;;;;;;;5.72;1.40;;;;;;;20.09;36.86;99915.94;4923818;28;20052;-71
2021/06/17 06:33:19;;;;;;;7.30;1.42;;;;;;;20.16;36.61;99937.59;4921008;29;20059;-69
2021/06/17 06:35:45;;;;;;;5.40;1.70;;;;;;;20.27;36.04;99943.56;4926087;29;20048;-70
2021/06/17 06:38:13;;;;;;;8.37;1.40;;;;;;;20.28;36.20;99936.88;4923000;29;20052;-69
2021/06/17 06:40:40;;;;;;;9.80;1.63;;;;;;;20.27;36.66;99940.78;4924430;29;20315;-70
2021/06/17 06:43:08;;;;;;;8.23;1.30;;;;;;;20.25;36.92;99938.34;4929022;29;20209;-70
2021/06/17 06:45:35;;;;;;;4.65;1.30;;;;;;;20.29;35.65;99941.25;4923897;29;20307;-70
2021/06/17 06:48:02;;;;;;;8.70;1.80;;;;;;;20.30;35.32;99942.88;4924960;29;20050;-71
2021/06/17 06:50:28;;;;;;;8.40;1.77;;;;;;;;;;4924723;29;20091;-71
2021/06/17 06:52:54;;;;;;;6.57;1.30;;;;;;;20.22;35.87;99950.13;4924722;29;20135;-71
2021/06/17 06:55:22;;;;;;;8.55;1.50;;;;;;;20.17;36.16;99947.56;4923100;29;20078;-71
2021/06/17 06:57:48;;;;;;;7.30;1.60;;;;;;;;;;4924918;29;20051;-69
2021/06/17 07:00:17;;;;;;;6.43;1.33;;;;;;;20.36;36.12;99947.06;4923943;29;20055;-69
2021/06/17 07:02:43;;;;;;;5.85;1.50;;;;;;;20.36;36.12;99955.41;4923168;29;20114;-70
2021/06/17 07:05:10;;;;;;;5.30;1.33;;;;;;;20.37;35.71;99962.63;4916773;29;20564;-70
2021/06/17 07:07:37;;;;;;;6.93;1.20;;;;;;;20.36;35.33;99968.50;4933855;28;20466;-71
2021/06/17 07:10:04;;;;;;;3.42;1.20;;;;;;;20.36;35.64;99968.50;4925684;29;20144;-69
2021/06/17 07:12:33;;;;;;;4.45;1.10;;;;;;;20.51;36.25;99962.34;4936631;28;20071;-67
2021/06/17 07:14:59;;;;;;;7.95;1.20;;;;;;;20.60;35.38;99972.53;4921968;29;20047;-70
2021/06/17 07:17:26;;;;;;;7.18;1.50;;;;;;;20.80;35.57;99973.69;4929296;29;20044;-66
2021/06/17 07:19:52;;;;;;;8.63;1.80;;;;;;;20.74;35.71;99972.28;4922831;29;20102;-65
2021/06/17 07:22:19;;;;;;;8.45;1.65;;;;;;;20.82;34.70;99979.75;4928614;29;20480;-73
2021/06/17 07:24:46;;;;;;;5.78;1.60;;;;;;;20.89;35.15;99976.44;4929382;29;20044;-69
2021/06/17 07:27:12;;;;;;;7.47;1.40;;;;;;;20.93;34.94;99977.41;4921025;29;20114;-67
2021/06/17 07:29:39;;;;;;;7.10;1.52;;;;;;;20.91;35.42;99977.72;4922591;29;20044;-70
2021/06/17 07:32:08;;;;;;;6.18;1.70;;;;;;;20.89;34.92;99982.00;4922762;29;20543;-69
2021/06/17 07:34:35;;;;;;;6.95;1.45;;;;;;;20.74;34.82;99978.66;4922352;29;20040;-69
2021/06/17 07:37:01;;;;;;;4.37;1.50;;;;;;;20.51;35.35;99978.16;4922367;29;20509;-67
2021/06/17 07:39:28;;;;;;;5.40;1.23;;;;;;;20.46;35.12;99983.94;4923640;29;20106;-68
2021/06/17 07:41:58;;;;;;;3.97;1.30;;;;;;;20.68;35.17;99986.41;4931290;28;20448;-65
2021/06/17 07:44:30;;;;;;;4.32;1.35;;;;;;;20.60;34.75;99987.25;4924098;29;20055;-67
2021/06/17 07:46:58;;;;;;;9.20;1.65;;;;;;;20.81;34.77;99984.50;4924706;29;20047;-66
2021/06/17 07:49:24;;;;;;;4.18;1.48;;;;;;;20.99;34.79;99989.09;4929509;29;20057;-70
2021/06/17 07:51:50;;;;;;;11.00;1.63;;;;;;;21.12;34.95;99985.22;4923362;29;20421;-67
2021/06/17 07:54:18;;;;;;;6.20;2.20;;;;;;;21.17;35.68;99984.19;4923976;29;20371;-69
2021/06/17 07:56:48;;;;;;;2.38;1.10;;;;;;;21.06;35.21;99990.16;4922908;29;20496;-67
2021/06/17 07:59:18;;;;;;;4.40;1.38;;;;;;;20.86;34.56;99988.22;4923054;29;20545;-65
2021/06/17 08:01:44;;;;;;;6.93;1.35;;;;;;;21.00;34.79;99999.09;4922762;29;20051;-68
2021/06/17 08:04:12;;;;;;;7.20;1.38;;;;;;;20.94;34.27;99996.50;4921725;29;20154;-70
2021/06/17 08:06:38;;;;;;;5.40;1.58;;;;;;;20.84;34.42;99988.59;4935267;28;20413;-68
2021/06/17 08:09:05;;;;;;;8.73;1.98;;;;;;;20.88;35.63;99999.81;4935365;28;20245;-69
2021/06/17 08:11:31;;;;;;;5.70;1.40;;;;;;;20.89;35.19;100005.03;4920416;29;20579;-69
2021/06/17 08:13:58;;;;;;;3.05;1.13;;;;;;;20.94;34.88;100001.25;4921295;29;20054;-70
2021/06/17 08:16:24;;;;;;;6.60;1.50;;;;;;;21.14;35.22;99998.78;4920832;29;20048;-69
2021/06/17 08:18:54;;;;;;;4.93;1.45;;;;;;;21.29;34.44;100003.69;4921079;29;20063;-67
2021/06/17 08:21:22;;;;;;;7.88;1.55;;;;;;;20.97;34.62;99997.78;4920407;29;20052;-68
2021/06/17 08:23:48;;;;;;;7.75;2.15;;;;;;;21.26;35.41;100004.38;4921144;29;20055;-68
2021/06/17 08:26:15;;;;;;;5.95;1.20;;;;;;;21.27;34.64;100007.97;4935068;29;21491;-68
2021/06/17 08:28:41;;;;;;;3.72;1.55;;;;;;;21.28;34.58;100010.41;4922069;29;20455;-70
2021/06/17 08:31:09;;;;;;;9.82;1.98;;;;;;;21.42;34.66;100012.88;4920404;29;20054;-69
2021/06/17 08:33:37;;;;;;;7.68;1.38;;;;;;;21.34;34.69;100013.78;4921889;29;20087;-67
2021/06/17 08:36:07;;;;;;;12.20;1.90;;;;;;;21.46;34.37;100004.66;4920436;29;20106;-68
2021/06/17 08:38:36;;;;;;;4.63;1.38;;;;;;;21.22;33.86;100011.75;4921900;29;20056;-68
2021/06/17 08:41:03;;;;;;;6.32;1.90;;;;;;;21.32;34.37;100022.47;4922562;29;20679;-67
2021/06/17 08:43:31;;;;;;;8.55;1.48;;;;;;;21.48;33.79;100022.66;4937825;28;20052;-68
2021/06/17 08:45:58;;;;;;;13.05;1.92;;;;;;;21.67;33.65;100015.75;4920013;29;20345;-68
2021/06/17 08:48:24;;;;;;;6.32;1.40;;;;;;;21.82;33.62;100017.03;4922584;29;20044;-67
2021/06/17 08:50:53;;;;;;;8.27;1.40;;;;;;;21.91;32.99;100009.41;4920486;29;20048;-68
2021/06/17 08:53:20;;;;;;;3.20;1.35;;;;;;;21.99;32.74;100007.66;4921914;29;20155;-69
2021/06/17 08:55:48;;;;;;;3.30;1.33;;;;;;;21.76;32.95;100010.88;4921942;29;20051;-70
2021/06/17 08:58:15;;;;;;;5.90;1.52;;;;;;;21.76;32.63;100008.09;4920806;29;20092;-67
2021/06/17 09:00:43;;;;;;;5.78;1.80;;;;;;;21.82;32.91;100003.13;4921962;29;20055;-68
2021/06/17 09:03:10;;;;;;;11.00;2.05;;;;;;;21.80;33.41;100003.50;4920341;29;20059;-68
2021/06/17 09:05:39;;;;;;;9.02;2.50;;;;;;;21.96;33.20;100003.59;4917995;29;20160;-68
2021/06/17 09:08:07;;;;;;;3.65;1.70;;;;;;;21.95;33.66;99998.41;4921791;28;20054;-69
2021/06/17 09:10:39;;;;;;;5.65;1.65;;;;;;;21.98;32.77;99989.34;4922222;29;20404;-64
2021/06/17 09:13:13;;;;;;;4.22;1.50;;;;;;;22.11;32.59;99998.50;4925296;29;20044;-69
2021/06/17 09:15:43;;;;;;;4.10;1.40;;;;;;;22.14;32.81;100000.56;4921915;29;20179;-70
2021/06/17 09:18:11;;;;;;;5.13;1.33;;;;;;;22.18;33.04;99993.19;4924690;28;20055;-71
2021/06/17 09:20:41;;;;;;;7.07;1.70;;;;;;;22.32;32.67;99991.97;4924860;29;20580;-70
2021/06/17 09:23:34;;;;;;;12.88;1.80;;;;;;;22.28;32.78;99988.28;4926463;29;20052;-71
2021/06/17 09:26:04;;;;;;;13.63;3.67;;;;;;;22.19;33.22;99993.97;4928422;29;20052;-71
2021/06/17 09:28:47;;;;;;;7.50;2.10;;;;;;;22.19;32.95;99994.78;4933436;29;20096;-70
2021/06/17 09:31:15;;;;;;;7.22;1.70;;;;;;;22.01;32.57;99996.16;4923857;29;20504;-66
2021/06/17 09:33:42;;;;;;;9.88;2.67;;;;;;;22.06;33.55;100001.53;4924388;29;20062;-70
2021/06/17 09:36:08;;;;;;;9.15;1.75;;;;;;;22.13;32.96;100003.72;4924475;29;20048;-67
2021/06/17 09:38:43;;;;;;;8.23;1.63;;;;;;;22.26;32.05;99999.78;4925295;29;20205;-66
2021/06/17 09:41:10;;;;;;;8.23;1.60;;;;;;;22.46;32.14;100000.78;4924708;29;20059;-67
2021/06/17 09:43:44;;;;;;;9.00;2.33;;;;;;;22.54;31.83;99990.69;4923911;29;20432;-64
2021/06/17 09:46:11;;;;;;;12.07;1.90;;;;;;;22.65;32.26;99994.63;4924556;29;20452;-66
2021/06/17 09:48:41;;;;;;;9.45;2.10;;;;;;;22.64;32.67;99983.84;4923939;29;20469;-69
2021/06/17 09:51:34;;;;;;;12.65;4.60;;;;;;;22.88;34.13;99990.47;4914227;29;20052;-69
2021/06/17 09:54:17;;;;;;;14.68;1.77;;;;;;;22.99;32.81;99999.97;4924693;29;20413;-66
2021/06/17 09:56:49;;;;;;;9.10;1.50;;;;;;;22.64;31.50;99992.19;4925275;29;20484;-67
2021/06/17 09:59:33;;;;;;;10.50;1.67;;;;;;;22.43;30.72;99992.34;4924039;29;20106;-67
2021/06/17 10:01:59;;;;;;;5.03;1.52;;;;;;;22.44;30.74;99991.16;4930996;29;20091;-68
2021/06/17 10:04:26;;;;;;;9.75;1.83;;;;;;;22.66;31.50;99984.28;4926774;29;20058;-65
2021/06/17 10:06:53;;;;;;;8.73;1.88;;;;;;;22.72;31.56;99982.88;4928051;29;20063;-65
2021/06/17 10:09:19;;;;;;;11.40;2.03;;;;;;;22.72;31.11;99980.09;4925263;29;20070;-65
2021/06/17 10:11:47;;;;;;;5.63;1.60;;;;;;;22.77;30.54;99992.97;4931270;29;20060;-65
2021/06/17 10:14:13;;;;;;;5.75;1.70;;;;;;;22.38;30.51;99976.66;4926359;29;20064;-64
2021/06/17 10:16:43;;;;;;;8.65;1.60;;;;;;;22.56;30.90;99982.00;4925948;29;20044;-64
2021/06/17 10:19:10;;;;;;;8.05;1.65;;;;;;;22.65;30.68;99983.47;4922157;29;20262;-64
2021/06/17 10:21:37;;;;;;;8.52;1.90;;;;;;;22.66;31.06;99981.50;4922183;29;20048;-67
2021/06/17 10:24:12;;;;;;;4.03;1.48;;;;;;;22.53;30.95;99991.84;4922925;29;20427;-65
2021/06/17 10:26:41;;;;;;;11.50;2.45;;;;;;;22.46;31.63;99988.84;4924218;29;20505;-68
2021/06/17 10:29:34;;;;;;;8.70;1.60;;;;;;;22.68;30.77;99979.19;4921658;29;20056;-65
2021/06/17 10:32:03;;;;;;;5.60;1.40;;;;;;;22.69;30.37;99980.81;4939102;29;20210;-66
2021/06/17 10:34:37;;;;;;;4.95;1.30;;;;;;;22.47;29.89;99991.28;4924257;29;20072;-66
2021/06/17 10:37:10;;;;;;;4.22;1.52;;;;;;;22.69;30.65;99975.22;4925003;29;20044;-67
2021/06/17 10:39:38;;;;;;;8.20;1.88;;;;;;;22.43;31.09;99964.47;4924393;29;20080;-67
2021/06/17 10:42:13;;;;;;;9.65;2.03;;;;;;;22.60;31.81;99989.31;4907808;29;20071;-66
2021/06/17 10:44:46;;;;;;;5.32;1.73;;;;;;;22.66;31.57;99984.28;4925757;29;20162;-67
2021/06/17 10:47:56;;;;;;;11.23;1.73;;;;;;;22.83;31.16;99983.19;4924610;29;21717;-67
2021/06/17 10:50:29;;;;;;;6.30;1.45;;;;;;;22.96;31.16;99986.75;4925342;29;20557;-65
2021/06/17 10:53:17;;;;;;;4.28;1.33;;;;;;;23.12;30.62;99984.00;4925608;29;20520;-66
2021/06/17 10:55:59;;;;;;;9.18;2.15;;;;;;;23.26;30.42;99968.81;4922821;29;20059;-67
2021/06/17 10:58:58;;;;;;;6.15;1.65;;;;;;;23.28;31.18;99966.50;4925268;29;20428;-67
2021/06/17 11:01:30;;;;;;;11.32;2.60;;;;;;;22.89;31.19;99967.03;4866476;29;20050;-67
2021/06/17 11:04:05;;;;;;;10.20;2.47;;;;;;;22.82;31.07;99972.41;4913819;29;20063;-68
2021/06/17 11:07:14;;;;;;;6.78;1.90;;;;;;;22.93;30.46;99993.00;4925013;29;20526;-67
2021/06/17 11:09:43;;;;;;;7.13;1.98;;;;;;;22.78;30.81;99981.44;4925276;29;20056;-67
2021/06/17 11:12:45;;;;;;;6.22;1.90;;;;;;;22.78;30.85;99984.22;4925218;29;20052;-66
2021/06/17 11:15:39;;;;;;;7.35;1.90;;;;;;;22.85;30.38;99983.63;4925833;29;20069;-66
2021/06/17 11:18:06;;;;;;;6.85;1.83;;;;;;;22.79;31.00;99994.25;4924875;29;20075;-67
2021/06/17 11:20:39;;;;;;;5.18;1.70;;;;;;;22.80;30.48;99987.50;4925399;29;20444;-67
2021/06/17 11:23:05;;;;;;;7.35;1.77;;;;;;;23.09;30.88;99993.06;4924055;29;20605;-66
2021/06/17 11:25:37;;;;;;;9.27;2.80;;;;;;;23.11;31.07;99973.22;4925199;29;20074;-67
2021/06/17 11:28:05;;;;;;;4.93;1.70;;;;;;;22.83;30.71;99983.19;4931207;29;20052;-66
2021/06/17 11:31:00;;;;;;;9.18;2.30;;;;;;;23.00;30.89;99984.88;4925116;29;20059;-66
2021/06/17 11:33:43;;;;;;;6.53;2.10;;;;;;;23.18;30.63;99979.78;4923696;29;20146;-66
2021/06/17 11:36:14;;;;;;;11.65;2.15;;;;;;;23.28;30.06;99978.50;4924949;29;20504;-67
2021/06/17 11:38:41;;;;;;;5.95;2.03;;;;;;;23.31;30.58;99966.63;4924685;29;20052;-65
2021/06/17 11:41:13;;;;;;;5.90;1.90;;;;;;;23.46;30.50;99972.56;4922710;29;20204;-67
2021/06/17 11:43:41;;;;;;;13.85;2.30;;;;;;;23.43;30.79;99971.31;4923888;29;20051;-63
2021/06/17 11:46:19;;;;;;;8.07;2.10;;;;;;;23.38;29.86;99988.31;4922600;29;20139;-64